Time;durP1;ratioP1;P1;durP2;ratioP2;P2;SDS_P1;SDS_P2;PMS_P1;PMS_P2;Temp;Humidity;BMP_temperature;BMP_pressure;BME280_temperature;BME280_humidity;BME280_pressure;Samples;Min_cycle;Max_cycle;Signal;HPM_P1;HPM_P2
2022/10/23 00:01:14;;;;;;;9.57;5.30;;;;;;;;;;5036744;28;20373;-80
2022/10/23 00:03:43;;;;;;;9.30;5.27;;;;;;;;;;5036755;28;20196;-79
2022/10/23 00:06:13;;;;;;;8.93;5.60;;;;;;;;;;5036913;28;20204;-79
2022/10/23 00:08:41;;;;;;;7.97;5.80;;;;;;;;;;5036433;28;20238;-79
2022/10/23 00:11:11;;;;;;;7.47;5.33;;;;;;;;;;5035804;28;20258;-79
2022/10/23 00:13:40;;;;;;;6.70;5.50;;;;;;;;;;5035583;28;20259;-79
2022/10/23 00:16:09;;;;;;;9.57;5.97;;;;;;;;;;5021615;28;20236;-79
2022/10/23 00:18:38;;;;;;;10.20;6.00;;;;;;;;;;5019882;28;20250;-79
2022/10/23 00:21:07;;;;;;;8.80;6.10;;;;;;;;;;5019568;28;20236;-79
2022/10/23 00:23:37;;;;;;;6.27;5.60;;;;;;;;;;5026900;28;20634;-79
2022/10/23 00:26:06;;;;;;;7.17;6.27;;;;;;;;;;5038307;28;20290;-79
2022/10/23 00:28:35;;;;;;;9.30;5.73;;;;;;;;;;5038163;28;20243;-79
2022/10/23 00:31:04;;;;;;;6.37;5.67;;;;;;;;;;5038890;28;20251;-79
2022/10/23 00:33:33;;;;;;;9.40;5.77;;;;;;;;;;5038375;28;20230;-79
2022/10/23 00:36:04;;;;;;;7.20;5.90;;;;;;;;;;5038454;28;20645;-79
2022/10/23 00:38:32;;;;;;;8.13;6.07;;;;;;;;;;5038069;28;20743;-79
2022/10/23 00:41:02;;;;;;;9.97;6.20;;;;;;;;;;5037933;28;20258;-79
2022/10/23 00:43:32;;;;;;;7.67;5.70;;;;;;;;;;5038343;28;20232;-79
2022/10/23 00:46:00;;;;;;;9.90;6.20;;;;;;;;;;5038801;28;20235;-79
2022/10/23 00:48:29;;;;;;;7.07;5.83;;;;;;;;;;5038355;28;20262;-79
2022/10/23 00:50:58;;;;;;;11.43;5.87;;;;;;;;;;5036856;28;20277;-79
2022/10/23 00:53:26;;;;;;;8.10;5.60;;;;;;;;;;5037904;28;20254;-79
2022/10/23 00:55:56;;;;;;;7.97;5.40;;;;;;;;;;5037174;28;20215;-79
2022/10/23 00:58:26;;;;;;;7.57;5.27;;;;;;;;;;5037854;28;20576;-79
2022/10/23 01:00:55;;;;;;;8.00;5.97;;;;;;;;;;5037634;28;20274;-79
2022/10/23 01:03:25;;;;;;;8.77;6.27;;;;;;;;;;5037796;28;20275;-79
2022/10/23 01:05:56;;;;;;;9.40;5.73;;;;;;;;;;5028482;28;20239;-79
2022/10/23 01:08:29;;;;;;;7.77;5.50;;;;;;;;;;5037711;28;20235;-79
2022/10/23 01:11:01;;;;;;;7.70;5.67;;;;;;;;;;5036829;28;20254;-79
2022/10/23 01:13:36;;;;;;;6.90;6.00;;;;;;;;;;5038454;28;20672;-79
2022/10/23 01:16:09;;;;;;;7.57;6.27;;;;;;;;;;5038259;28;20220;-79
2022/10/23 01:18:40;;;;;;;9.83;6.30;;;;;;;;;;5029173;28;20263;-79
2022/10/23 01:21:12;;;;;;;9.37;6.23;;;;;;;;;;5052213;28;20281;-79
2022/10/23 01:23:49;;;;;;;9.63;5.83;;;;;;;;;;5038259;28;20234;-79
2022/10/23 01:26:27;;;;;;;12.13;6.37;;;;;;;;;;5038278;28;20257;-79
2022/10/23 01:29:00;;;;;;;9.93;6.20;;;;;;;;;;5038210;28;20204;-80
2022/10/23 01:31:31;;;;;;;7.17;5.47;;;;;;;;;;5035403;28;20225;-78
2022/10/23 01:34:04;;;;;;;7.47;5.90;;;;;;;;;;5037655;28;20238;-79
2022/10/23 01:36:33;;;;;;;7.57;5.50;;;;;;;;;;5038080;28;20302;-79
2022/10/23 01:39:04;;;;;;;7.63;5.63;;;;;;;;;;5037898;28;20246;-79
2022/10/23 01:41:35;;;;;;;8.33;5.97;;;;;;;;;;5037122;28;20230;-80
2022/10/23 01:44:08;;;;;;;7.27;5.97;;;;;;;;;;5037715;28;20196;-79
2022/10/23 01:46:36;;;;;;;8.13;5.80;;;;;;;;;;5034099;28;20257;-79
2022/10/23 01:49:07;;;;;;;6.10;5.20;;;;;;;;;;5017930;28;20236;-79
2022/10/23 01:51:37;;;;;;;7.70;5.67;;;;;;;;;;5017348;28;20221;-79
2022/10/23 01:54:07;;;;;;;7.43;5.27;;;;;;;;;;5024582;28;20235;-79
2022/10/23 01:56:37;;;;;;;8.30;5.37;;;;;;;;;;5037274;28;20250;-78
2022/10/23 01:59:10;;;;;;;6.53;4.93;;;;;;;;;;5022708;28;20260;-79
2022/10/23 02:01:40;;;;;;;6.07;5.03;;;;;;;;;;5037032;28;20279;-79
2022/10/23 02:04:10;;;;;;;7.33;5.33;;;;;;;;;;5038257;28;20570;-79
2022/10/23 02:06:38;;;;;;;9.00;5.27;;;;;;;;;;5036957;28;20199;-79
2022/10/23 02:09:07;;;;;;;5.43;4.93;;;;;;;;;;5036733;28;20247;-79
2022/10/23 02:11:40;;;;;;;5.90;4.93;;;;;;;;;;5035280;28;20259;-79
2022/10/23 02:14:14;;;;;;;6.33;4.90;;;;;;;;;;5035983;28;20680;-79
2022/10/23 02:16:44;;;;;;;5.87;4.83;;;;;;;;;;5035189;28;20295;-79
2022/10/23 02:19:18;;;;;;;6.70;4.87;;;;;;;;;;5021066;28;20604;-79
2022/10/23 02:21:50;;;;;;;6.73;4.77;;;;;;;;;;5034884;28;20277;-79
2022/10/23 02:24:21;;;;;;;7.53;5.00;;;;;;;;;;5036932;28;20196;-79
2022/10/23 02:26:52;;;;;;;7.03;4.60;;;;;;;;;;5036934;28;20254;-79
2022/10/23 02:29:27;;;;;;;8.80;5.63;;;;;;;;;;5037610;28;20230;-79
2022/10/23 02:31:55;;;;;;;6.33;4.47;;;;;;;;;;5036022;28;20571;-79
2022/10/23 02:34:24;;;;;;;9.13;4.93;;;;;;;;;;5036724;28;20266;-79
2022/10/23 02:36:52;;;;;;;9.70;4.57;;;;;;;;;;5035477;28;20307;-79
2022/10/23 02:39:22;;;;;;;5.30;4.30;;;;;;;;;;5035779;28;20204;-79
2022/10/23 02:41:52;;;;;;;6.23;4.47;;;;;;;;;;5036298;28;20211;-79
2022/10/23 02:44:29;;;;;;;7.43;4.10;;;;;;;;;;5035768;28;20250;-79
2022/10/23 02:47:05;;;;;;;5.67;4.23;;;;;;;;;;5034984;28;20196;-79
2022/10/23 02:49:38;;;;;;;5.47;4.17;;;;;;;;;;5035598;28;20254;-79
2022/10/23 02:52:11;;;;;;;4.77;4.10;;;;;;;;;;5035451;28;20226;-80
2022/10/23 02:54:47;;;;;;;5.33;4.60;;;;;;;;;;5015971;28;20580;-79
2022/10/23 02:57:19;;;;;;;4.30;3.90;;;;;;;;;;5015611;28;20187;-80
2022/10/23 02:59:54;;;;;;;6.33;4.23;;;;;;;;;;5030573;28;20651;-79
2022/10/23 03:02:24;;;;;;;4.80;3.90;;;;;;;;;;5033921;28;20245;-79
2022/10/23 03:04:54;;;;;;;5.00;3.40;;;;;;;;;;5034875;28;20660;-79
2022/10/23 03:07:23;;;;;;;4.00;3.60;;;;;;;;;;5034781;28;20204;-79
2022/10/23 03:09:51;;;;;;;5.57;4.63;;;;;;;;;;5034800;28;20259;-79
2022/10/23 03:12:20;;;;;;;5.60;4.63;;;;;;;;;;5034599;28;20258;-79
2022/10/23 03:14:50;;;;;;;4.53;4.10;;;;;;;;;;5034735;28;20699;-79
2022/10/23 03:17:18;;;;;;;4.97;4.57;;;;;;;;;;5033204;28;20251;-79
2022/10/23 03:19:47;;;;;;;5.40;4.43;;;;;;;;;;5033836;28;20223;-79
2022/10/23 03:22:15;;;;;;;4.53;3.97;;;;;;;;;;5033960;28;20242;-79
2022/10/23 03:24:44;;;;;;;5.37;4.87;;;;;;;;;;5034020;28;20269;-79
2022/10/23 03:27:12;;;;;;;6.00;4.50;;;;;;;;;;5033913;28;20258;-79
2022/10/23 03:29:41;;;;;;;8.50;5.07;;;;;;;;;;5033380;28;20277;-78
2022/10/23 03:32:10;;;;;;;6.10;4.87;;;;;;;;;;5033796;28;20290;-79
2022/10/23 03:34:39;;;;;;;6.73;4.93;;;;;;;;;;5033624;28;20231;-78
2022/10/23 03:37:07;;;;;;;5.50;5.00;;;;;;;;;;5032978;28;20251;-79
2022/10/23 03:39:36;;;;;;;5.90;4.90;;;;;;;;;;5033801;28;20227;-79
2022/10/23 03:42:04;;;;;;;5.57;4.90;;;;;;;;;;5033738;28;20297;-79
2022/10/23 03:44:34;;;;;;;8.13;5.27;;;;;;;;;;5033165;28;20200;-79
2022/10/23 03:47:02;;;;;;;8.60;5.20;;;;;;;;;;5032906;28;20246;-79
2022/10/23 03:49:32;;;;;;;7.10;5.23;;;;;;;;;;5028231;28;20212;-79
2022/10/23 03:52:00;;;;;;;7.53;5.40;;;;;;;;;;5037062;28;20545;-79
2022/10/23 03:54:29;;;;;;;7.20;5.43;;;;;;;;;;5037089;28;20589;-80
2022/10/23 03:56:58;;;;;;;7.13;5.57;;;;;;;;;;5036975;28;20258;-79
2022/10/23 03:59:26;;;;;;;6.57;5.67;;;;;;;;;;5036677;28;20293;-79
2022/10/23 04:01:55;;;;;;;9.83;5.97;;;;;;;;;;5036770;28;20212;-79
2022/10/23 04:04:24;;;;;;;6.50;5.83;;;;;;;;;;5021728;28;20205;-79
2022/10/23 04:06:54;;;;;;;8.40;6.17;;;;;;;;;;5017250;28;20240;-79
2022/10/23 04:09:22;;;;;;;6.00;5.30;;;;;;;;;;5017126;28;20228;-78
2022/10/23 04:11:51;;;;;;;7.50;5.60;;;;;;;;;;5026693;28;20215;-78
2022/10/23 04:14:19;;;;;;;12.07;5.93;;;;;;;;;;5037147;28;20270;-79
2022/10/23 04:16:48;;;;;;;8.57;5.40;;;;;;;;;;5035937;28;20306;-78
2022/10/23 04:19:17;;;;;;;9.37;5.73;;;;;;;;;;5036102;28;20258;-79
2022/10/23 04:21:45;;;;;;;8.17;6.03;;;;;;;;;;5036715;28;20265;-79
2022/10/23 04:24:15;;;;;;;6.27;5.33;;;;;;;;;;5036700;28;20243;-79
2022/10/23 04:26:44;;;;;;;6.57;5.60;;;;;;;;;;5037336;28;20294;-79
2022/10/23 04:29:12;;;;;;;7.93;5.60;;;;;;;;;;5037087;28;20200;-79
2022/10/23 04:31:41;;;;;;;6.13;5.43;;;;;;;;;;5035569;28;20568;-79
2022/10/23 04:34:09;;;;;;;7.10;5.47;;;;;;;;;;5035734;28;20232;-78
2022/10/23 04:36:38;;;;;;;7.00;5.53;;;;;;;;;;5036343;28;20310;-79
2022/10/23 04:39:06;;;;;;;8.30;5.80;;;;;;;;;;5036461;28;20215;-79
2022/10/23 04:41:37;;;;;;;7.07;5.90;;;;;;;;;;5036163;28;20267;-79
2022/10/23 04:44:06;;;;;;;6.67;5.47;;;;;;;;;;5036966;28;20208;-79
2022/10/23 04:46:34;;;;;;;5.87;5.37;;;;;;;;;;5035589;28;20208;-79
2022/10/23 04:49:03;;;;;;;6.80;5.67;;;;;;;;;;5036092;28;20653;-79
2022/10/23 04:51:31;;;;;;;6.97;5.97;;;;;;;;;;5036374;28;20224;-79
2022/10/23 04:54:00;;;;;;;7.90;5.30;;;;;;;;;;5036358;28;20239;-79
2022/10/23 04:56:28;;;;;;;5.87;5.27;;;;;;;;;;5036038;28;20220;-79
2022/10/23 04:58:58;;;;;;;6.00;5.40;;;;;;;;;;5035823;28;20719;-78
2022/10/23 05:01:27;;;;;;;5.77;5.03;;;;;;;;;;5016039;28;20256;-79
2022/10/23 05:03:56;;;;;;;7.43;5.53;;;;;;;;;;5015814;28;20209;-79
2022/10/23 05:06:24;;;;;;;8.10;5.60;;;;;;;;;;5027188;28;20295;-79
2022/10/23 05:08:53;;;;;;;6.20;5.60;;;;;;;;;;5016325;28;20692;-79
2022/10/23 05:11:21;;;;;;;7.83;5.53;;;;;;;;;;5016112;28;20247;-79
2022/10/23 05:13:50;;;;;;;6.47;5.73;;;;;;;;;;5015839;28;20208;-79
2022/10/23 05:16:27;;;;;;;9.70;6.17;;;;;;;;;;5015971;28;20243;-79
2022/10/23 05:18:56;;;;;;;7.33;6.47;;;;;;;;;;5020245;28;20227;-80
2022/10/23 05:21:27;;;;;;;6.80;5.73;;;;;;;;;;5020014;28;20224;-79
2022/10/23 05:23:56;;;;;;;7.87;5.70;;;;;;;;;;5035746;28;20219;-78
2022/10/23 05:26:24;;;;;;;8.73;6.43;;;;;;;;;;5035519;28;20265;-79
2022/10/23 05:28:53;;;;;;;7.70;6.13;;;;;;;;;;5035556;28;20235;-79
2022/10/23 05:31:23;;;;;;;7.77;5.97;;;;;;;;;;5035701;28;20263;-79
2022/10/23 05:33:53;;;;;;;7.77;5.63;;;;;;;;;;5030906;28;20224;-79
2022/10/23 05:36:22;;;;;;;6.23;5.03;;;;;;;;;;5015528;28;20674;-79
2022/10/23 05:38:51;;;;;;;7.03;4.93;;;;;;;;;;5015614;28;20254;-79
2022/10/23 05:41:19;;;;;;;8.13;5.07;;;;;;;;;;5015971;28;20252;-79
2022/10/23 05:43:48;;;;;;;5.73;5.03;;;;;;;;;;5034094;28;20258;-79
2022/10/23 05:46:16;;;;;;;7.23;5.00;;;;;;;;;;5035534;28;20235;-79
2022/10/23 05:48:46;;;;;;;8.93;5.80;;;;;;;;;;5034844;28;20243;-79
2022/10/23 05:51:19;;;;;;;6.17;5.57;;;;;;;;;;5035158;28;20223;-79
2022/10/23 05:53:48;;;;;;;6.77;5.47;;;;;;;;;;5035046;28;20310;-79
2022/10/23 05:56:17;;;;;;;8.37;5.40;;;;;;;;;;5034152;28;20283;-79
2022/10/23 05:58:45;;;;;;;6.73;5.93;;;;;;;;;;5035005;28;20262;-79
2022/10/23 06:01:16;;;;;;;8.00;5.43;;;;;;;;;;5034694;28;20235;-79
2022/10/23 06:03:46;;;;;;;8.30;5.83;;;;;;;;;;5034321;28;20736;-79
2022/10/23 06:06:15;;;;;;;9.47;6.33;;;;;;;;;;5034929;28;20204;-79
2022/10/23 06:08:44;;;;;;;5.80;5.17;;;;;;;;;;5033939;28;20253;-79
2022/10/23 06:11:15;;;;;;;6.20;5.50;;;;;;;;;;5022216;28;20307;-79
2022/10/23 06:13:43;;;;;;;7.53;5.87;;;;;;;;;;5034093;28;20585;-79
2022/10/23 06:16:13;;;;;;;9.27;6.07;;;;;;;;;;5026554;28;20208;-79
2022/10/23 06:18:42;;;;;;;9.27;5.73;;;;;;;;;;5032810;28;20247;-79
2022/10/23 06:21:11;;;;;;;6.17;5.57;;;;;;;;;;5034480;28;20258;-79
2022/10/23 06:23:40;;;;;;;9.27;6.00;;;;;;;;;;5034801;28;20291;-79
2022/10/23 06:26:11;;;;;;;6.93;6.03;;;;;;;;;;5034283;28;20326;-79
2022/10/23 06:28:39;;;;;;;10.00;5.77;;;;;;;;;;5034539;28;20601;-79
2022/10/23 06:31:08;;;;;;;6.00;5.40;;;;;;;;;;5029434;28;20302;-79
2022/10/23 06:33:37;;;;;;;7.70;5.73;;;;;;;;;;5020452;28;20263;-79
2022/10/23 06:36:09;;;;;;;7.47;5.53;;;;;;;;;;5034303;28;20242;-79
2022/10/23 06:38:39;;;;;;;10.80;6.40;;;;;;;;;;5019698;28;20223;-79
2022/10/23 06:41:08;;;;;;;8.40;5.77;;;;;;;;;;5033734;28;20227;-79
2022/10/23 06:43:37;;;;;;;9.57;6.17;;;;;;;;;;5034240;28;20208;-79
2022/10/23 06:46:05;;;;;;;10.53;6.00;;;;;;;;;;5014171;28;20294;-79
2022/10/23 06:48:34;;;;;;;9.77;6.10;;;;;;;;;;5031059;28;20251;-79
2022/10/23 06:51:05;;;;;;;7.63;6.17;;;;;;;;;;5024342;28;20216;-79
2022/10/23 06:53:34;;;;;;;8.80;6.17;;;;;;;;;;5018899;28;20610;-79
2022/10/23 06:56:04;;;;;;;7.90;5.67;;;;;;;;;;5033186;28;20207;-79
2022/10/23 06:58:34;;;;;;;7.90;5.70;;;;;;;;;;5033541;28;20266;-79
2022/10/23 07:01:03;;;;;;;7.60;5.50;;;;;;;;;;5033550;28;20665;-79
2022/10/23 07:03:33;;;;;;;13.93;6.37;;;;;;;;;;5033513;28;20235;-79
2022/10/23 07:06:01;;;;;;;7.03;5.70;;;;;;;;;;5033353;28;20271;-79
2022/10/23 07:08:30;;;;;;;8.10;6.20;;;;;;;;;;5033857;28;20231;-79
2022/10/23 07:10:58;;;;;;;6.60;5.67;;;;;;;;;;5033725;28;20251;-79
2022/10/23 07:13:28;;;;;;;9.87;6.10;;;;;;;;;;5033689;28;20200;-79
2022/10/23 07:15:57;;;;;;;9.23;5.97;;;;;;;;;;5033620;28;20676;-79
2022/10/23 07:18:25;;;;;;;6.90;5.63;;;;;;;;;;5030737;28;20242;-79
2022/10/23 07:20:58;;;;;;;9.80;6.07;;;;;;;;;;5031715;28;20223;-79
2022/10/23 07:23:26;;;;;;;12.93;6.00;;;;;;;;;;5032685;28;20191;-79
2022/10/23 07:25:55;;;;;;;8.00;6.30;;;;;;;;;;5032555;28;20238;-79
2022/10/23 07:28:24;;;;;;;11.20;6.27;;;;;;;;;;5031749;28;20235;-78
2022/10/23 07:30:58;;;;;;;10.00;6.57;;;;;;;;;;5033263;28;20227;-79
2022/10/23 07:33:27;;;;;;;7.97;6.37;;;;;;;;;;5032619;28;20202;-79
2022/10/23 07:35:55;;;;;;;8.97;5.90;;;;;;;;;;5019253;28;20243;-79
2022/10/23 07:38:23;;;;;;;7.37;5.90;;;;;;;;;;5016612;28;20257;-80
2022/10/23 07:40:52;;;;;;;8.10;5.90;;;;;;;;;;5028952;28;20223;-79
2022/10/23 07:43:21;;;;;;;9.60;6.43;;;;;;;;;;5033652;28;20258;-79
2022/10/23 07:45:50;;;;;;;10.37;6.37;;;;;;;;;;5033354;28;20207;-79
2022/10/23 07:48:20;;;;;;;6.37;5.60;;;;;;;;;;5032927;28;20290;-79
2022/10/23 07:50:49;;;;;;;8.20;5.77;;;;;;;;;;5033331;28;20285;-79
2022/10/23 07:53:18;;;;;;;6.80;6.10;;;;;;;;;;5032848;28;20736;-79
2022/10/23 07:55:52;;;;;;;8.40;6.17;;;;;;;;;;5031226;28;20208;-80
2022/10/23 07:58:21;;;;;;;8.00;6.53;;;;;;;;;;5033456;28;20745;-80
2022/10/23 08:00:54;;;;;;;9.37;6.47;;;;;;;;;;5033138;28;20277;-79
2022/10/23 08:03:24;;;;;;;7.90;6.57;;;;;;;;;;5032749;28;20241;-79
2022/10/23 08:05:53;;;;;;;6.70;5.73;;;;;;;;;;5033900;28;20231;-79
2022/10/23 08:08:21;;;;;;;11.93;6.50;;;;;;;;;;5024785;28;20200;-79
2022/10/23 08:10:51;;;;;;;7.40;5.87;;;;;;;;;;5033800;28;20256;-79
2022/10/23 08:13:20;;;;;;;8.97;6.30;;;;;;;;;;5032663;28;20230;-79
2022/10/23 08:15:49;;;;;;;8.70;5.93;;;;;;;;;;5023523;28;20216;-79
2022/10/23 08:18:18;;;;;;;11.03;6.07;;;;;;;;;;5027108;28;20247;-79
2022/10/23 08:20:51;;;;;;;7.77;5.80;;;;;;;;;;5034032;28;20224;-80
2022/10/23 08:47:10;;;;;;;8.57;5.47;;;;;;;;;;5055699;28;20212;-80
2022/10/23 08:49:56;;;;;;;7.13;5.57;;;;;;;;;;5055294;28;20204;-81
2022/10/23 08:53:24;;;;;;;13.03;6.50;;;;;;;;;;5060342;28;20243;-78
2022/10/23 08:56:20;;;;;;;8.13;5.87;;;;;;;;;;5059936;28;20191;-81
2022/10/23 08:59:08;;;;;;;9.87;5.70;;;;;;;;;;5054290;28;20249;-81
2022/10/23 09:04:43;;;;;;;10.03;4.87;;;;;;;;;;5057613;28;20210;-80
2022/10/23 09:07:25;;;;;;;8.87;4.77;;;;;;;;;;5054153;28;20704;-80
2022/10/23 09:09:58;;;;;;;7.57;5.10;;;;;;;;;;5034262;28;20220;-80
2022/10/23 09:12:29;;;;;;;10.17;4.83;;;;;;;;;;5020690;28;20258;-80
2022/10/23 09:15:05;;;;;;;8.30;4.90;;;;;;;;;;5019569;28;20185;-80
2022/10/23 09:17:34;;;;;;;8.03;4.43;;;;;;;;;;5016086;28;20219;-80
2022/10/23 09:20:11;;;;;;;8.10;3.97;;;;;;;;;;5015968;28;20267;-79
2022/10/23 09:22:40;;;;;;;7.03;4.23;;;;;;;;;;5017841;28;20185;-80
2022/10/23 09:25:10;;;;;;;8.03;4.20;;;;;;;;;;5017559;28;20240;-80
2022/10/23 09:27:38;;;;;;;5.90;4.20;;;;;;;;;;5017718;28;20270;-79
2022/10/23 09:30:09;;;;;;;5.17;3.90;;;;;;;;;;5018571;28;20255;-80
2022/10/23 09:32:38;;;;;;;7.20;3.83;;;;;;;;;;5017769;28;20199;-80
2022/10/23 09:35:07;;;;;;;6.10;4.13;;;;;;;;;;5016775;28;20632;-80
2022/10/23 09:37:36;;;;;;;5.57;3.60;;;;;;;;;;5017412;28;20735;-80
2022/10/23 09:40:16;;;;;;;6.53;3.90;;;;;;;;;;5016236;28;20229;-80
2022/10/23 09:42:52;;;;;;;6.73;3.90;;;;;;;;;;5015592;28;20189;-80
2022/10/23 09:45:28;;;;;;;6.87;3.80;;;;;;;;;;5015148;28;20223;-80
2022/10/23 09:48:13;;;;;;;6.37;3.70;;;;;;;;;;5015662;28;20224;-80
2022/10/23 09:50:49;;;;;;;5.30;3.70;;;;;;;;;;5015511;28;20640;-80
2022/10/23 09:53:26;;;;;;;5.77;3.33;;;;;;;;;;5015976;28;20611;-80
2022/10/23 09:55:55;;;;;;;6.00;3.47;;;;;;;;;;5015409;28;20220;-80
2022/10/23 09:58:27;;;;;;;7.83;3.70;;;;;;;;;;5015267;28;20204;-80
2022/10/23 10:00:57;;;;;;;11.50;3.57;;;;;;;;;;5015132;28;20260;-80
2022/10/23 10:03:26;;;;;;;5.57;3.00;;;;;;;;;;5014878;28;20239;-80
2022/10/23 10:05:56;;;;;;;4.93;3.40;;;;;;;;;;5014833;28;20240;-80
2022/10/23 10:08:28;;;;;;;5.43;3.25;;;;;;;;;;5015071;28;20248;-80
2022/10/23 10:11:01;;;;;;;5.30;3.00;;;;;;;;;;5014722;28;20264;-80
2022/10/23 10:13:41;;;;;;;3.73;2.63;;;;;;;;;;5014327;28;20243;-79
2022/10/23 10:16:14;;;;;;;6.40;2.80;;;;;;;;;;5014387;28;20248;-80
2022/10/23 10:18:46;;;;;;;4.23;2.60;;;;;;;;;;5015467;28;20198;-80
2022/10/23 10:21:17;;;;;;;4.67;2.73;;;;;;;;;;5016794;28;20629;-80
2022/10/23 10:23:49;;;;;;;5.57;2.97;;;;;;;;;;5017163;28;20215;-80
2022/10/23 10:26:24;;;;;;;3.37;2.40;;;;;;;;;;5016426;28;20189;-80
2022/10/23 10:29:03;;;;;;;2.97;2.45;;;;;;;;;;5016875;28;20184;-80
2022/10/23 10:31:36;;;;;;;4.03;2.50;;;;;;;;;;5015170;28;20252;-80
2022/10/23 10:34:11;;;;;;;5.50;2.42;;;;;;;;;;5015349;28;20601;-80
2022/10/23 10:36:42;;;;;;;6.28;2.50;;;;;;;;;;5014915;28;20195;-79
2022/10/23 10:39:15;;;;;;;7.07;2.63;;;;;;;;;;5015087;28;20228;-80
2022/10/23 10:41:50;;;;;;;6.78;2.30;;;;;;;;;;5014776;28;20228;-79
2022/10/23 10:44:34;;;;;;;6.57;2.67;;;;;;;;;;5014002;28;20188;-79
2022/10/23 10:47:06;;;;;;;2.90;2.25;;;;;;;;;;5004593;28;20662;-81
2022/10/23 10:49:39;;;;;;;4.10;2.00;;;;;;;;;;5022155;28;20208;-81
2022/10/23 10:52:14;;;;;;;4.47;2.08;;;;;;;;;;5022937;28;20195;-81
2022/10/23 10:54:50;;;;;;;5.25;2.05;;;;;;;;;;5025304;28;20196;-81
2022/10/23 10:57:25;;;;;;;2.45;1.80;;;;;;;;;;5023171;28;20592;-81
2022/10/23 10:59:55;;;;;;;5.20;2.00;;;;;;;;;;5025956;28;20232;-81
2022/10/23 11:02:27;;;;;;;4.03;1.60;;;;;;;;;;5036792;28;20256;-81
2022/10/23 11:05:00;;;;;;;2.63;1.67;;;;;;;;;;5038531;28;20201;-81
2022/10/23 11:07:32;;;;;;;3.15;1.63;;;;;;;;;;5038200;28;20172;-78
2022/10/23 11:10:04;;;;;;;2.80;1.58;;;;;;;;;;5037918;28;20233;-77
2022/10/23 11:12:33;;;;;;;2.80;1.45;;;;;;;;;;5039066;28;20168;-78
2022/10/23 11:15:01;;;;;;;4.55;1.85;;;;;;;;;;5036760;28;20192;-77
2022/10/23 11:17:36;;;;;;;3.22;1.63;;;;;;;;;;5038388;28;20192;-78
2022/10/23 11:20:11;;;;;;;3.25;1.60;;;;;;;;;;5039180;28;20219;-77
2022/10/23 11:22:48;;;;;;;2.17;1.40;;;;;;;;;;5039182;28;20195;-77
2022/10/23 11:25:34;;;;;;;2.15;1.50;;;;;;;;;;5038601;28;20168;-78
2022/10/23 11:28:19;;;;;;;3.13;1.42;;;;;;;;;;5036766;28;20196;-77
2022/10/23 11:30:58;;;;;;;4.90;1.85;;;;;;;;;;5038968;28;20208;-80
2022/10/23 11:33:54;;;;;;;3.00;1.50;;;;;;;;;;5037334;28;20184;-81
2022/10/23 11:36:40;;;;;;;2.33;1.42;;;;;;;;;;5038142;28;20197;-77
2022/10/23 11:39:16;;;;;;;4.65;1.60;;;;;;;;;;5038322;28;20232;-77
2022/10/23 11:41:49;;;;;;;2.38;1.40;;;;;;;;;;5037602;28;20228;-81
2022/10/23 11:44:25;;;;;;;4.38;1.58;;;;;;;;;;5038239;28;20204;-77
2022/10/23 11:47:01;;;;;;;1.55;1.30;;;;;;;;;;5038723;28;20176;-77
2022/10/23 11:49:30;;;;;;;2.42;1.50;;;;;;;;;;5038717;28;20180;-77
2022/10/23 11:52:04;;;;;;;3.55;1.90;;;;;;;;;;5034963;28;20195;-78
2022/10/23 11:54:33;;;;;;;1.63;1.50;;;;;;;;;;5037137;28;20185;-78
2022/10/23 11:57:11;;;;;;;5.38;1.70;;;;;;;;;;5038937;28;20181;-79
2022/10/23 12:00:01;;;;;;;4.55;1.73;;;;;;;;;;5038749;28;20189;-77
2022/10/23 12:02:31;;;;;;;4.60;1.90;;;;;;;;;;5031893;28;20196;-79
2022/10/23 12:05:02;;;;;;;4.63;1.85;;;;;;;;;;5033257;28;20212;-81
2022/10/23 12:07:33;;;;;;;4.40;1.80;;;;;;;;;;5038271;28;20168;-80
2022/10/23 12:10:04;;;;;;;4.18;1.50;;;;;;;;;;5037496;28;20213;-81
2022/10/23 12:12:34;;;;;;;3.13;1.80;;;;;;;;;;5040195;28;20180;-77
2022/10/23 12:15:18;;;;;;;2.67;1.70;;;;;;;;;;5041690;28;20181;-76
2022/10/23 12:17:47;;;;;;;2.40;1.33;;;;;;;;;;5041251;28;20185;-81
2022/10/23 12:20:30;;;;;;;4.10;1.65;;;;;;;;;;5039784;28;20216;-77
2022/10/23 12:23:10;;;;;;;3.33;1.80;;;;;;;;;;5037759;28;20220;-81
2022/10/23 12:25:42;;;;;;;3.30;1.40;;;;;;;;;;5042118;28;20169;-79
2022/10/23 12:28:19;;;;;;;5.75;1.80;;;;;;;;;;5039972;28;20172;-78
2022/10/23 12:30:51;;;;;;;4.88;2.22;;;;;;;;;;5041000;28;20228;-77
2022/10/23 12:33:27;;;;;;;4.28;1.55;;;;;;;;;;5036669;28;20203;-81
2022/10/23 12:36:04;;;;;;;3.08;1.45;;;;;;;;;;5040466;28;20185;-78
2022/10/23 12:38:35;;;;;;;3.13;1.67;;;;;;;;;;5041896;28;20195;-76
2022/10/23 12:41:07;;;;;;;2.47;1.50;;;;;;;;;;5037286;28;20646;-81
2022/10/23 12:43:36;;;;;;;2.45;1.40;;;;;;;;;;5039922;28;20173;-80
2022/10/23 12:46:08;;;;;;;4.22;1.70;;;;;;;;;;5039169;28;20177;-78
2022/10/23 12:48:47;;;;;;;3.75;1.73;;;;;;;;;;5036132;28;20165;-81
2022/10/23 12:51:21;;;;;;;3.30;1.52;;;;;;;;;;5028260;28;20204;-81
2022/10/23 12:53:51;;;;;;;2.92;1.50;;;;;;;;;;5034534;28;20169;-81
2022/10/23 12:56:20;;;;;;;3.55;1.60;;;;;;;;;;5031803;28;20200;-81
2022/10/23 12:58:50;;;;;;;6.28;1.80;;;;;;;;;;5040755;28;20180;-77
2022/10/23 13:01:26;;;;;;;3.40;1.70;;;;;;;;;;5038401;28;20239;-79
2022/10/23 13:03:58;;;;;;;4.03;1.60;;;;;;;;;;5038143;28;20197;-76
2022/10/23 13:06:27;;;;;;;3.25;1.50;;;;;;;;;;5041060;28;20180;-81
2022/10/23 13:08:57;;;;;;;4.70;1.63;;;;;;;;;;5040295;28;20180;-81
2022/10/23 13:11:26;;;;;;;3.50;1.50;;;;;;;;;;5039190;28;20208;-77
2022/10/23 13:13:55;;;;;;;2.83;1.30;;;;;;;;;;5039249;28;20207;-81
2022/10/23 13:16:24;;;;;;;2.63;1.70;;;;;;;;;;5040878;28;20192;-77
2022/10/23 13:18:53;;;;;;;2.45;1.50;;;;;;;;;;5039167;28;20184;-76
2022/10/23 13:21:25;;;;;;;2.25;1.42;;;;;;;;;;5040940;28;20216;-76
2022/10/23 13:23:54;;;;;;;1.98;1.30;;;;;;;;;;5040594;28;20195;-76
2022/10/23 13:26:30;;;;;;;3.65;1.50;;;;;;;;;;5041197;28;20173;-77
2022/10/23 13:29:02;;;;;;;2.65;1.50;;;;;;;;;;5039025;28;20176;-77
2022/10/23 13:31:44;;;;;;;3.53;1.48;;;;;;;;;;5040898;28;20247;-78
2022/10/23 13:34:25;;;;;;;2.70;1.40;;;;;;;;;;5040678;28;20255;-76
2022/10/23 13:37:01;;;;;;;2.38;1.35;;;;;;;;;;5040214;28;20188;-77
2022/10/23 13:39:31;;;;;;;2.72;1.40;;;;;;;;;;5040129;28;20165;-77
2022/10/23 13:42:11;;;;;;;2.75;1.65;;;;;;;;;;5040410;28;20243;-78
2022/10/23 13:44:41;;;;;;;3.40;1.10;;;;;;;;;;5035303;28;20184;-79
2022/10/23 13:47:12;;;;;;;5.55;1.40;;;;;;;;;;5039117;28;20191;-79
2022/10/23 13:49:41;;;;;;;3.40;1.50;;;;;;;;;;5038192;28;20160;-78
2022/10/23 13:52:23;;;;;;;2.03;1.40;;;;;;;;;;5038873;28;20197;-78
2022/10/23 13:54:52;;;;;;;4.47;1.65;;;;;;;;;;5034415;28;20196;-81
2022/10/23 13:57:22;;;;;;;2.25;1.30;;;;;;;;;;5038173;28;20199;-77
2022/10/23 13:59:50;;;;;;;1.88;1.38;;;;;;;;;;5032354;28;20212;-77
2022/10/23 14:02:20;;;;;;;3.10;1.30;;;;;;;;;;5038243;28;20240;-77
2022/10/23 14:04:49;;;;;;;3.58;1.50;;;;;;;;;;5036459;28;20203;-78
2022/10/23 14:07:18;;;;;;;1.85;1.38;;;;;;;;;;5025308;28;20211;-78
2022/10/23 14:09:47;;;;;;;2.33;1.30;;;;;;;;;;5032252;28;20234;-77
2022/10/23 14:12:18;;;;;;;2.10;1.40;;;;;;;;;;5032559;28;20257;-78
2022/10/23 14:14:51;;;;;;;2.00;1.38;;;;;;;;;;5027661;28;20249;-77
2022/10/23 14:17:19;;;;;;;4.18;1.40;;;;;;;;;;5041461;28;20248;-77
2022/10/23 14:19:49;;;;;;;4.18;1.48;;;;;;;;;;5033471;28;21227;-77
2022/10/23 14:22:18;;;;;;;3.17;1.50;;;;;;;;;;5036501;28;20224;-77
2022/10/23 14:24:46;;;;;;;3.47;1.40;;;;;;;;;;5033105;28;20206;-77
2022/10/23 14:27:15;;;;;;;1.33;1.23;;;;;;;;;;5023447;28;20239;-78
2022/10/23 14:29:43;;;;;;;3.35;1.40;;;;;;;;;;5033233;28;20274;-78
2022/10/23 14:32:13;;;;;;;2.90;1.33;;;;;;;;;;5033170;28;20232;-78
2022/10/23 14:34:44;;;;;;;3.28;1.30;;;;;;;;;;5027690;28;20240;-78
2022/10/23 14:37:13;;;;;;;2.42;1.45;;;;;;;;;;5032536;28;20274;-77
2022/10/23 14:39:41;;;;;;;3.28;1.50;;;;;;;;;;5032225;28;20565;-77
2022/10/23 14:42:16;;;;;;;7.50;1.48;;;;;;;;;;5033406;28;20612;-77
2022/10/23 14:44:45;;;;;;;3.60;1.40;;;;;;;;;;5025927;28;20200;-78
2022/10/23 14:47:15;;;;;;;3.25;1.48;;;;;;;;;;5033205;28;20247;-77
2022/10/23 14:49:44;;;;;;;3.55;1.42;;;;;;;;;;5035323;28;20282;-79
2022/10/23 14:52:13;;;;;;;2.97;1.40;;;;;;;;;;5035027;28;20292;-78
2022/10/23 14:54:41;;;;;;;3.15;1.33;;;;;;;;;;5035010;28;20267;-78
2022/10/23 14:57:11;;;;;;;2.70;1.42;;;;;;;;;;5033288;28;20227;-79
2022/10/23 14:59:39;;;;;;;3.65;1.40;;;;;;;;;;5035065;28;20238;-78
2022/10/23 15:02:10;;;;;;;3.67;1.30;;;;;;;;;;5037865;28;20262;-78
2022/10/23 15:04:40;;;;;;;2.42;1.20;;;;;;;;;;5032812;28;20227;-78
2022/10/23 15:07:08;;;;;;;3.13;1.40;;;;;;;;;;5033416;28;20254;-78
2022/10/23 15:09:38;;;;;;;2.92;1.40;;;;;;;;;;5034081;28;20286;-78
2022/10/23 15:12:07;;;;;;;2.90;1.40;;;;;;;;;;5031656;28;20704;-78
2022/10/23 15:14:36;;;;;;;3.45;1.50;;;;;;;;;;5029286;28;20653;-79
2022/10/23 15:17:05;;;;;;;6.32;1.52;;;;;;;;;;5038285;28;20239;-80
2022/10/23 15:19:33;;;;;;;3.10;1.30;;;;;;;;;;5040519;28;20206;-80
2022/10/23 15:22:03;;;;;;;2.45;1.40;;;;;;;;;;5035207;28;20212;-78
2022/10/23 15:24:32;;;;;;;2.83;1.30;;;;;;;;;;5035338;28;20226;-79
2022/10/23 15:27:00;;;;;;;4.07;1.40;;;;;;;;;;5022374;28;20200;-79
2022/10/23 15:29:29;;;;;;;1.45;1.35;;;;;;;;;;5025436;28;20208;-78
2022/10/23 15:31:58;;;;;;;3.35;1.52;;;;;;;;;;5035543;28;20199;-78
2022/10/23 15:34:28;;;;;;;3.67;1.40;;;;;;;;;;5027592;28;20270;-78